sensor_id;sensor_type;location;lat;lon;timestamp;temperature;humidity
21508;DHT22;10915;54.352;9.074;2023-02-28T00:00:26;5.80;99.90
21508;DHT22;10915;54.352;9.074;2023-02-28T00:02:52;5.80;99.90
21508;DHT22;10915;54.352;9.074;2023-02-28T00:05:20;5.80;99.90
21508;DHT22;10915;54.352;9.074;2023-02-28T00:07:47;5.80;99.90
21508;DHT22;10915;54.352;9.074;2023-02-28T00:10:16;5.80;99.90
21508;DHT22;10915;54.352;9.074;2023-02-28T00:12:52;5.80;99.90
21508;DHT22;10915;54.352;9.074;2023-02-28T00:15:19;5.80;99.90
21508;DHT22;10915;54.352;9.074;2023-02-28T00:17:45;5.80;99.90
21508;DHT22;10915;54.352;9.074;2023-02-28T00:20:12;5.80;99.90
21508;DHT22;10915;54.352;9.074;2023-02-28T00:22:39;5.80;99.90
21508;DHT22;10915;54.352;9.074;2023-02-28T00:25:06;5.80;99.90
21508;DHT22;10915;54.352;9.074;2023-02-28T00:27:36;5.80;99.90
21508;DHT22;10915;54.352;9.074;2023-02-28T00:30:03;5.70;99.90
21508;DHT22;10915;54.352;9.074;2023-02-28T00:32:29;5.70;99.90
21508;DHT22;10915;54.352;9.074;2023-02-28T00:34:55;5.70;99.90
21508;DHT22;10915;54.352;9.074;2023-02-28T00:37:21;5.70;99.90
21508;DHT22;10915;54.352;9.074;2023-02-28T00:39:47;5.70;99.90
21508;DHT22;10915;54.352;9.074;2023-02-28T00:42:13;5.70;99.90
21508;DHT22;10915;54.352;9.074;2023-02-28T00:44:39;5.70;99.90
21508;DHT22;10915;54.352;9.074;2023-02-28T00:47:04;5.60;99.90
21508;DHT22;10915;54.352;9.074;2023-02-28T00:49:30;5.60;99.90
21508;DHT22;10915;54.352;9.074;2023-02-28T00:51:56;5.60;99.90
21508;DHT22;10915;54.352;9.074;2023-02-28T00:54:23;5.50;99.90
21508;DHT22;10915;54.352;9.074;2023-02-28T00:56:49;5.60;99.90
21508;DHT22;10915;54.352;9.074;2023-02-28T00:59:17;5.60;99.90
21508;DHT22;10915;54.352;9.074;2023-02-28T01:01:45;5.50;99.90
21508;DHT22;10915;54.352;9.074;2023-02-28T01:04:11;5.50;99.90
21508;DHT22;10915;54.352;9.074;2023-02-28T01:06:37;5.40;99.90
21508;DHT22;10915;54.352;9.074;2023-02-28T01:09:04;5.40;99.90
21508;DHT22;10915;54.352;9.074;2023-02-28T01:11:36;5.40;99.90
21508;DHT22;10915;54.352;9.074;2023-02-28T01:14:02;5.40;99.90
21508;DHT22;10915;54.352;9.074;2023-02-28T01:16:29;5.30;99.90
21508;DHT22;10915;54.352;9.074;2023-02-28T01:18:55;5.30;99.90
21508;DHT22;10915;54.352;9.074;2023-02-28T01:21:22;5.30;99.90
21508;DHT22;10915;54.352;9.074;2023-02-28T01:23:49;5.20;99.90
21508;DHT22;10915;54.352;9.074;2023-02-28T01:26:20;5.20;99.90
21508;DHT22;10915;54.352;9.074;2023-02-28T01:28:47;5.10;99.90
21508;DHT22;10915;54.352;9.074;2023-02-28T01:31:14;5.10;99.90
21508;DHT22;10915;54.352;9.074;2023-02-28T01:33:40;5.10;99.90
21508;DHT22;10915;54.352;9.074;2023-02-28T01:36:12;5.00;99.90
21508;DHT22;10915;54.352;9.074;2023-02-28T01:38:39;5.00;99.90
21508;DHT22;10915;54.352;9.074;2023-02-28T01:41:06;5.00;99.90
21508;DHT22;10915;54.352;9.074;2023-02-28T01:43:56;4.90;99.90
21508;DHT22;10915;54.352;9.074;2023-02-28T01:46:22;5.00;99.90
21508;DHT22;10915;54.352;9.074;2023-02-28T01:54:10;4.90;99.90
21508;DHT22;10915;54.352;9.074;2023-02-28T01:56:43;5.00;99.90
21508;DHT22;10915;54.352;9.074;2023-02-28T01:59:12;4.90;99.90
21508;DHT22;10915;54.352;9.074;2023-02-28T02:01:38;4.90;99.90
21508;DHT22;10915;54.352;9.074;2023-02-28T02:04:04;4.80;99.90
21508;DHT22;10915;54.352;9.074;2023-02-28T02:06:38;4.80;99.90
21508;DHT22;10915;54.352;9.074;2023-02-28T02:09:04;4.70;99.90
21508;DHT22;10915;54.352;9.074;2023-02-28T02:11:31;4.60;99.90
21508;DHT22;10915;54.352;9.074;2023-02-28T02:19:34;4.50;99.90
21508;DHT22;10915;54.352;9.074;2023-02-28T02:22:32;4.40;99.90
21508;DHT22;10915;54.352;9.074;2023-02-28T02:33:06;4.30;99.90
21508;DHT22;10915;54.352;9.074;2023-02-28T02:46:45;4.20;99.90
21508;DHT22;10915;54.352;9.074;2023-02-28T02:49:24;4.20;99.90
21508;DHT22;10915;54.352;9.074;2023-02-28T02:51:52;4.20;99.90
21508;DHT22;10915;54.352;9.074;2023-02-28T02:54:28;4.30;99.90
21508;DHT22;10915;54.352;9.074;2023-02-28T02:56:59;4.20;99.90
21508;DHT22;10915;54.352;9.074;2023-02-28T02:59:27;4.20;99.90
21508;DHT22;10915;54.352;9.074;2023-02-28T03:02:00;4.20;99.90
21508;DHT22;10915;54.352;9.074;2023-02-28T03:04:31;4.30;99.90
21508;DHT22;10915;54.352;9.074;2023-02-28T03:06:58;4.30;99.90
21508;DHT22;10915;54.352;9.074;2023-02-28T03:09:25;4.30;99.90
21508;DHT22;10915;54.352;9.074;2023-02-28T03:11:52;4.30;99.90
21508;DHT22;10915;54.352;9.074;2023-02-28T03:25:56;4.20;99.90
21508;DHT22;10915;54.352;9.074;2023-02-28T03:32:08;4.10;99.90
21508;DHT22;10915;54.352;9.074;2023-02-28T03:36:41;4.10;99.90
21508;DHT22;10915;54.352;9.074;2023-02-28T03:39:20;4.10;99.90
21508;DHT22;10915;54.352;9.074;2023-02-28T03:42:03;4.10;99.90
21508;DHT22;10915;54.352;9.074;2023-02-28T03:44:32;4.10;99.90
21508;DHT22;10915;54.352;9.074;2023-02-28T03:47:07;4.10;99.90
21508;DHT22;10915;54.352;9.074;2023-02-28T03:49:54;4.10;99.90
21508;DHT22;10915;54.352;9.074;2023-02-28T03:52:24;4.10;99.90
21508;DHT22;10915;54.352;9.074;2023-02-28T03:54:55;4.10;99.90
21508;DHT22;10915;54.352;9.074;2023-02-28T03:57:43;4.20;99.90
21508;DHT22;10915;54.352;9.074;2023-02-28T04:00:19;4.20;99.90
21508;DHT22;10915;54.352;9.074;2023-02-28T04:02:45;4.20;99.90
21508;DHT22;10915;54.352;9.074;2023-02-28T04:05:11;4.20;99.90
21508;DHT22;10915;54.352;9.074;2023-02-28T04:07:37;4.10;99.90
21508;DHT22;10915;54.352;9.074;2023-02-28T04:10:04;4.10;99.90
21508;DHT22;10915;54.352;9.074;2023-02-28T04:12:30;4.00;99.90
21508;DHT22;10915;54.352;9.074;2023-02-28T04:14:56;4.00;99.90
21508;DHT22;10915;54.352;9.074;2023-02-28T04:17:21;4.10;99.90
21508;DHT22;10915;54.352;9.074;2023-02-28T04:19:47;4.10;99.90
21508;DHT22;10915;54.352;9.074;2023-02-28T04:22:12;4.10;99.90
21508;DHT22;10915;54.352;9.074;2023-02-28T04:24:39;4.10;99.90
21508;DHT22;10915;54.352;9.074;2023-02-28T04:27:08;4.00;99.90
21508;DHT22;10915;54.352;9.074;2023-02-28T04:29:34;4.00;99.90
21508;DHT22;10915;54.352;9.074;2023-02-28T04:32:01;4.00;99.90
21508;DHT22;10915;54.352;9.074;2023-02-28T04:34:28;4.00;99.90
21508;DHT22;10915;54.352;9.074;2023-02-28T04:36:55;4.10;99.90
21508;DHT22;10915;54.352;9.074;2023-02-28T04:39:22;4.10;99.90
21508;DHT22;10915;54.352;9.074;2023-02-28T04:41:48;4.10;99.90
21508;DHT22;10915;54.352;9.074;2023-02-28T04:44:14;4.00;99.90
21508;DHT22;10915;54.352;9.074;2023-02-28T04:46:41;4.10;99.90
21508;DHT22;10915;54.352;9.074;2023-02-28T04:49:07;4.10;99.90
21508;DHT22;10915;54.352;9.074;2023-02-28T04:51:33;4.10;99.90
21508;DHT22;10915;54.352;9.074;2023-02-28T04:53:59;4.10;99.90
21508;DHT22;10915;54.352;9.074;2023-02-28T04:56:24;4.20;99.90
21508;DHT22;10915;54.352;9.074;2023-02-28T04:58:50;4.10;99.90
21508;DHT22;10915;54.352;9.074;2023-02-28T05:01:34;4.20;99.90
21508;DHT22;10915;54.352;9.074;2023-02-28T05:04:03;4.10;99.90
21508;DHT22;10915;54.352;9.074;2023-02-28T05:06:30;4.10;99.90
21508;DHT22;10915;54.352;9.074;2023-02-28T05:08:56;4.10;99.90
21508;DHT22;10915;54.352;9.074;2023-02-28T05:11:26;4.10;99.90
21508;DHT22;10915;54.352;9.074;2023-02-28T05:13:52;4.10;99.90
21508;DHT22;10915;54.352;9.074;2023-02-28T05:16:19;4.10;99.90
21508;DHT22;10915;54.352;9.074;2023-02-28T05:18:45;4.10;99.90
21508;DHT22;10915;54.352;9.074;2023-02-28T05:21:29;4.10;99.90
21508;DHT22;10915;54.352;9.074;2023-02-28T05:23:57;4.10;99.90
21508;DHT22;10915;54.352;9.074;2023-02-28T05:26:23;4.10;99.90
21508;DHT22;10915;54.352;9.074;2023-02-28T05:28:49;4.10;99.90
21508;DHT22;10915;54.352;9.074;2023-02-28T05:31:15;4.10;99.90
21508;DHT22;10915;54.352;9.074;2023-02-28T05:33:41;4.00;99.90
21508;DHT22;10915;54.352;9.074;2023-02-28T05:36:07;3.90;99.90
21508;DHT22;10915;54.352;9.074;2023-02-28T05:38:32;3.90;99.90
21508;DHT22;10915;54.352;9.074;2023-02-28T05:40:58;3.90;99.90
21508;DHT22;10915;54.352;9.074;2023-02-28T05:43:24;3.80;99.90
21508;DHT22;10915;54.352;9.074;2023-02-28T05:45:50;3.70;99.90
21508;DHT22;10915;54.352;9.074;2023-02-28T05:48:16;3.70;99.90
21508;DHT22;10915;54.352;9.074;2023-02-28T05:50:43;3.60;99.90
21508;DHT22;10915;54.352;9.074;2023-02-28T05:53:11;3.60;99.90
21508;DHT22;10915;54.352;9.074;2023-02-28T05:55:37;3.50;99.90
21508;DHT22;10915;54.352;9.074;2023-02-28T05:58:03;3.50;99.90
21508;DHT22;10915;54.352;9.074;2023-02-28T06:00:29;3.50;99.90
21508;DHT22;10915;54.352;9.074;2023-02-28T06:02:54;3.40;99.90
21508;DHT22;10915;54.352;9.074;2023-02-28T06:05:23;3.40;99.90
21508;DHT22;10915;54.352;9.074;2023-02-28T06:07:50;3.40;99.90
21508;DHT22;10915;54.352;9.074;2023-02-28T06:10:16;3.40;99.90
21508;DHT22;10915;54.352;9.074;2023-02-28T06:12:41;3.30;99.90
21508;DHT22;10915;54.352;9.074;2023-02-28T06:15:13;3.30;99.90
21508;DHT22;10915;54.352;9.074;2023-02-28T06:17:39;3.30;99.90
21508;DHT22;10915;54.352;9.074;2023-02-28T06:20:06;3.30;99.90
21508;DHT22;10915;54.352;9.074;2023-02-28T06:22:32;3.30;99.90
21508;DHT22;10915;54.352;9.074;2023-02-28T06:24:57;3.30;99.90
21508;DHT22;10915;54.352;9.074;2023-02-28T06:27:23;3.30;99.90
21508;DHT22;10915;54.352;9.074;2023-02-28T06:29:49;3.30;99.90
21508;DHT22;10915;54.352;9.074;2023-02-28T06:32:14;3.30;99.90
21508;DHT22;10915;54.352;9.074;2023-02-28T06:34:40;3.30;99.90
21508;DHT22;10915;54.352;9.074;2023-02-28T06:37:05;3.30;99.90
21508;DHT22;10915;54.352;9.074;2023-02-28T06:39:31;3.30;99.90
21508;DHT22;10915;54.352;9.074;2023-02-28T06:41:57;3.20;99.90
21508;DHT22;10915;54.352;9.074;2023-02-28T06:44:23;3.20;99.90
21508;DHT22;10915;54.352;9.074;2023-02-28T06:46:49;3.30;99.90
21508;DHT22;10915;54.352;9.074;2023-02-28T06:49:15;3.30;99.90
21508;DHT22;10915;54.352;9.074;2023-02-28T06:51:43;3.30;99.90
21508;DHT22;10915;54.352;9.074;2023-02-28T06:54:12;3.30;99.90
21508;DHT22;10915;54.352;9.074;2023-02-28T06:56:38;3.30;99.90
21508;DHT22;10915;54.352;9.074;2023-02-28T06:59:04;3.40;99.90
21508;DHT22;10915;54.352;9.074;2023-02-28T07:01:30;3.50;99.90
21508;DHT22;10915;54.352;9.074;2023-02-28T07:03:58;3.70;99.90
21508;DHT22;10915;54.352;9.074;2023-02-28T07:06:25;4.00;99.90
21508;DHT22;10915;54.352;9.074;2023-02-28T07:08:52;4.20;99.90
21508;DHT22;10915;54.352;9.074;2023-02-28T07:11:19;4.60;99.90
21508;DHT22;10915;54.352;9.074;2023-02-28T07:13:46;5.00;99.90
21508;DHT22;10915;54.352;9.074;2023-02-28T07:16:12;5.30;99.90
21508;DHT22;10915;54.352;9.074;2023-02-28T07:18:39;5.50;99.90
21508;DHT22;10915;54.352;9.074;2023-02-28T07:21:07;5.60;99.90
21508;DHT22;10915;54.352;9.074;2023-02-28T07:23:33;5.60;99.90
21508;DHT22;10915;54.352;9.074;2023-02-28T07:25:59;5.40;99.90
21508;DHT22;10915;54.352;9.074;2023-02-28T07:28:25;5.20;99.90
21508;DHT22;10915;54.352;9.074;2023-02-28T07:30:50;5.10;99.90
21508;DHT22;10915;54.352;9.074;2023-02-28T07:33:16;5.00;99.90
21508;DHT22;10915;54.352;9.074;2023-02-28T07:35:42;4.90;99.90
21508;DHT22;10915;54.352;9.074;2023-02-28T07:38:08;4.80;99.90
21508;DHT22;10915;54.352;9.074;2023-02-28T07:40:35;4.70;99.90
21508;DHT22;10915;54.352;9.074;2023-02-28T07:43:01;4.70;99.90
21508;DHT22;10915;54.352;9.074;2023-02-28T07:45:27;4.70;99.90
21508;DHT22;10915;54.352;9.074;2023-02-28T07:47:59;4.70;99.90
21508;DHT22;10915;54.352;9.074;2023-02-28T07:50:25;4.80;99.90
21508;DHT22;10915;54.352;9.074;2023-02-28T07:52:53;4.80;99.90
21508;DHT22;10915;54.352;9.074;2023-02-28T07:55:18;4.90;99.90
21508;DHT22;10915;54.352;9.074;2023-02-28T07:57:44;5.10;99.90
21508;DHT22;10915;54.352;9.074;2023-02-28T08:00:11;5.20;99.90
21508;DHT22;10915;54.352;9.074;2023-02-28T08:02:38;5.60;99.90
21508;DHT22;10915;54.352;9.074;2023-02-28T08:05:05;6.40;99.90
21508;DHT22;10915;54.352;9.074;2023-02-28T08:07:30;7.30;99.90
21508;DHT22;10915;54.352;9.074;2023-02-28T08:09:57;8.00;99.90
21508;DHT22;10915;54.352;9.074;2023-02-28T08:12:23;8.60;99.90
21508;DHT22;10915;54.352;9.074;2023-02-28T08:14:49;8.90;99.90
21508;DHT22;10915;54.352;9.074;2023-02-28T08:17:14;9.00;99.90
21508;DHT22;10915;54.352;9.074;2023-02-28T08:19:40;9.00;99.90
21508;DHT22;10915;54.352;9.074;2023-02-28T08:22:05;8.90;99.90
21508;DHT22;10915;54.352;9.074;2023-02-28T08:24:31;9.00;99.90
21508;DHT22;10915;54.352;9.074;2023-02-28T08:26:57;8.90;99.90
21508;DHT22;10915;54.352;9.074;2023-02-28T08:29:22;8.70;99.90
21508;DHT22;10915;54.352;9.074;2023-02-28T08:31:48;8.20;99.90
21508;DHT22;10915;54.352;9.074;2023-02-28T08:34:16;8.00;99.90
21508;DHT22;10915;54.352;9.074;2023-02-28T08:36:41;8.20;99.90
21508;DHT22;10915;54.352;9.074;2023-02-28T08:39:10;8.40;99.90
21508;DHT22;10915;54.352;9.074;2023-02-28T08:41:36;8.60;99.90
21508;DHT22;10915;54.352;9.074;2023-02-28T08:44:02;8.60;99.90
21508;DHT22;10915;54.352;9.074;2023-02-28T08:46:28;8.60;99.90
21508;DHT22;10915;54.352;9.074;2023-02-28T08:48:55;8.40;99.90
21508;DHT22;10915;54.352;9.074;2023-02-28T08:51:21;8.20;99.90
21508;DHT22;10915;54.352;9.074;2023-02-28T08:53:52;8.20;99.90
21508;DHT22;10915;54.352;9.074;2023-02-28T08:56:18;8.20;99.90
21508;DHT22;10915;54.352;9.074;2023-02-28T08:58:45;8.00;99.90
21508;DHT22;10915;54.352;9.074;2023-02-28T09:01:17;8.00;99.90
21508;DHT22;10915;54.352;9.074;2023-02-28T09:03:43;7.90;99.90
21508;DHT22;10915;54.352;9.074;2023-02-28T09:06:09;8.10;99.90
21508;DHT22;10915;54.352;9.074;2023-02-28T09:08:35;8.40;99.90
21508;DHT22;10915;54.352;9.074;2023-02-28T09:11:01;8.80;99.90
21508;DHT22;10915;54.352;9.074;2023-02-28T09:13:28;9.30;99.90
21508;DHT22;10915;54.352;9.074;2023-02-28T09:15:58;9.50;99.90
21508;DHT22;10915;54.352;9.074;2023-02-28T09:18:24;9.80;99.90
21508;DHT22;10915;54.352;9.074;2023-02-28T09:20:49;10.10;99.90
21508;DHT22;10915;54.352;9.074;2023-02-28T09:23:15;10.20;99.90
21508;DHT22;10915;54.352;9.074;2023-02-28T09:25:51;10.60;99.90
21508;DHT22;10915;54.352;9.074;2023-02-28T09:28:18;11.20;99.90
21508;DHT22;10915;54.352;9.074;2023-02-28T09:30:45;11.80;99.90
21508;DHT22;10915;54.352;9.074;2023-02-28T09:33:12;12.40;99.90
21508;DHT22;10915;54.352;9.074;2023-02-28T09:35:38;12.80;99.90
21508;DHT22;10915;54.352;9.074;2023-02-28T09:38:04;13.10;99.90
21508;DHT22;10915;54.352;9.074;2023-02-28T09:40:31;13.40;99.90
21508;DHT22;10915;54.352;9.074;2023-02-28T09:42:57;13.80;99.90
21508;DHT22;10915;54.352;9.074;2023-02-28T09:45:39;14.20;99.90
21508;DHT22;10915;54.352;9.074;2023-02-28T09:48:29;14.40;99.90
21508;DHT22;10915;54.352;9.074;2023-02-28T09:51:09;14.60;99.90
21508;DHT22;10915;54.352;9.074;2023-02-28T09:53:38;14.70;99.90
21508;DHT22;10915;54.352;9.074;2023-02-28T09:56:11;14.30;99.90
21508;DHT22;10915;54.352;9.074;2023-02-28T09:58:46;14.20;99.90
21508;DHT22;10915;54.352;9.074;2023-02-28T10:06:50;13.90;99.90
21508;DHT22;10915;54.352;9.074;2023-02-28T10:09:24;13.40;99.90
21508;DHT22;10915;54.352;9.074;2023-02-28T10:11:54;12.80;99.90
21508;DHT22;10915;54.352;9.074;2023-02-28T10:14:23;12.30;99.90
21508;DHT22;10915;54.352;9.074;2023-02-28T10:16:54;11.90;99.90
21508;DHT22;10915;54.352;9.074;2023-02-28T10:23:09;11.30;99.90
21508;DHT22;10915;54.352;9.074;2023-02-28T10:25:20;11.00;99.90
21508;DHT22;10915;54.352;9.074;2023-02-28T10:27:46;10.70;99.90
21508;DHT22;10915;54.352;9.074;2023-02-28T10:30:12;10.60;99.90
21508;DHT22;10915;54.352;9.074;2023-02-28T10:32:48;10.50;99.90
21508;DHT22;10915;54.352;9.074;2023-02-28T10:35:23;10.40;99.90
21508;DHT22;10915;54.352;9.074;2023-02-28T10:37:57;10.30;99.90
21508;DHT22;10915;54.352;9.074;2023-02-28T10:43:02;10.10;99.90
21508;DHT22;10915;54.352;9.074;2023-02-28T10:45:33;10.10;99.90
21508;DHT22;10915;54.352;9.074;2023-02-28T10:56:03;10.00;99.90
21508;DHT22;10915;54.352;9.074;2023-02-28T10:58:30;9.90;99.90
21508;DHT22;10915;54.352;9.074;2023-02-28T11:00:57;10.00;99.90
21508;DHT22;10915;54.352;9.074;2023-02-28T11:03:33;10.20;99.90
21508;DHT22;10915;54.352;9.074;2023-02-28T11:06:05;10.60;99.90
21508;DHT22;10915;54.352;9.074;2023-02-28T11:08:31;11.00;99.90
21508;DHT22;10915;54.352;9.074;2023-02-28T11:11:04;11.40;99.90
21508;DHT22;10915;54.352;9.074;2023-02-28T11:13:34;11.70;99.90
21508;DHT22;10915;54.352;9.074;2023-02-28T11:16:03;11.80;99.90
21508;DHT22;10915;54.352;9.074;2023-02-28T11:18:43;12.10;99.90
21508;DHT22;10915;54.352;9.074;2023-02-28T11:21:21;11.80;99.90
21508;DHT22;10915;54.352;9.074;2023-02-28T11:23:51;11.70;99.90
21508;DHT22;10915;54.352;9.074;2023-02-28T11:26:39;11.90;99.90
21508;DHT22;10915;54.352;9.074;2023-02-28T11:29:32;12.00;99.90
21508;DHT22;10915;54.352;9.074;2023-02-28T11:32:18;12.10;99.90
21508;DHT22;10915;54.352;9.074;2023-02-28T11:34:46;12.20;99.90
21508;DHT22;10915;54.352;9.074;2023-02-28T11:37:17;12.30;99.90
21508;DHT22;10915;54.352;9.074;2023-02-28T11:39:45;12.30;99.90
21508;DHT22;10915;54.352;9.074;2023-02-28T12:01:24;10.90;99.90
21508;DHT22;10915;54.352;9.074;2023-02-28T12:06:31;10.50;99.90
21508;DHT22;10915;54.352;9.074;2023-02-28T12:12:28;10.30;99.90
21508;DHT22;10915;54.352;9.074;2023-02-28T12:20:40;10.10;99.90
21508;DHT22;10915;54.352;9.074;2023-02-28T12:28:30;9.80;99.90
21508;DHT22;10915;54.352;9.074;2023-02-28T12:31:01;9.70;99.90
21508;DHT22;10915;54.352;9.074;2023-02-28T12:33:33;9.60;99.90
21508;DHT22;10915;54.352;9.074;2023-02-28T12:36:05;9.60;99.90
21508;DHT22;10915;54.352;9.074;2023-02-28T12:38:43;9.50;99.90
21508;DHT22;10915;54.352;9.074;2023-02-28T12:41:12;9.50;99.90
21508;DHT22;10915;54.352;9.074;2023-02-28T12:43:43;9.60;99.90
21508;DHT22;10915;54.352;9.074;2023-02-28T12:46:22;9.80;99.90
21508;DHT22;10915;54.352;9.074;2023-02-28T12:49:41;10.00;99.90
21508;DHT22;10915;54.352;9.074;2023-02-28T12:52:00;10.20;99.90
21508;DHT22;10915;54.352;9.074;2023-02-28T12:59:51;10.70;99.90
21508;DHT22;10915;54.352;9.074;2023-02-28T13:08:35;10.80;99.90
21508;DHT22;10915;54.352;9.074;2023-02-28T13:11:28;11.00;99.90
21508;DHT22;10915;54.352;9.074;2023-02-28T13:14:04;11.10;99.90
21508;DHT22;10915;54.352;9.074;2023-02-28T13:16:56;11.20;99.90
21508;DHT22;10915;54.352;9.074;2023-02-28T13:19:25;11.20;99.90
21508;DHT22;10915;54.352;9.074;2023-02-28T13:21:51;11.30;99.90
21508;DHT22;10915;54.352;9.074;2023-02-28T13:29:42;11.30;99.90
21508;DHT22;10915;54.352;9.074;2023-02-28T13:34:37;11.20;99.90
21508;DHT22;10915;54.352;9.074;2023-02-28T13:39:56;11.20;99.90
21508;DHT22;10915;54.352;9.074;2023-02-28T13:42:24;11.20;99.90
21508;DHT22;10915;54.352;9.074;2023-02-28T13:47:41;11.00;99.90
21508;DHT22;10915;54.352;9.074;2023-02-28T13:50:29;11.00;99.90
21508;DHT22;10915;54.352;9.074;2023-02-28T13:58:43;10.90;99.90
21508;DHT22;10915;54.352;9.074;2023-02-28T14:06:38;10.70;99.90
21508;DHT22;10915;54.352;9.074;2023-02-28T14:11:39;10.70;99.90
21508;DHT22;10915;54.352;9.074;2023-02-28T14:14:08;10.70;99.90
21508;DHT22;10915;54.352;9.074;2023-02-28T14:19:25;10.60;99.90
21508;DHT22;10915;54.352;9.074;2023-02-28T14:22:20;10.60;99.90
21508;DHT22;10915;54.352;9.074;2023-02-28T14:25:20;10.60;99.90
21508;DHT22;10915;54.352;9.074;2023-02-28T14:28:18;10.50;99.90
21508;DHT22;10915;54.352;9.074;2023-02-28T14:31:15;10.50;99.90
21508;DHT22;10915;54.352;9.074;2023-02-28T14:36:36;10.50;99.90
21508;DHT22;10915;54.352;9.074;2023-02-28T14:41:36;10.60;99.90
21508;DHT22;10915;54.352;9.074;2023-02-28T14:44:18;10.50;99.90
21508;DHT22;10915;54.352;9.074;2023-02-28T14:46:45;10.40;99.90
21508;DHT22;10915;54.352;9.074;2023-02-28T14:49:32;10.30;99.90
21508;DHT22;10915;54.352;9.074;2023-02-28T14:54:38;10.00;99.90
21508;DHT22;10915;54.352;9.074;2023-02-28T14:57:05;9.90;99.90
21508;DHT22;10915;54.352;9.074;2023-02-28T14:59:33;9.70;99.90
21508;DHT22;10915;54.352;9.074;2023-02-28T15:02:24;9.60;99.90
21508;DHT22;10915;54.352;9.074;2023-02-28T15:07:39;9.30;99.90
21508;DHT22;10915;54.352;9.074;2023-02-28T15:12:53;9.10;99.90
21508;DHT22;10915;54.352;9.074;2023-02-28T15:15:22;9.00;99.90
21508;DHT22;10915;54.352;9.074;2023-02-28T15:17:52;9.00;99.90
21508;DHT22;10915;54.352;9.074;2023-02-28T15:20:19;8.90;99.90
21508;DHT22;10915;54.352;9.074;2023-02-28T15:22:47;8.90;99.90
21508;DHT22;10915;54.352;9.074;2023-02-28T15:25:18;8.80;99.90
21508;DHT22;10915;54.352;9.074;2023-02-28T15:27:55;8.80;99.90
21508;DHT22;10915;54.352;9.074;2023-02-28T15:30:28;8.80;99.90
21508;DHT22;10915;54.352;9.074;2023-02-28T15:35:44;8.70;99.90
21508;DHT22;10915;54.352;9.074;2023-02-28T15:38:25;8.70;99.90
21508;DHT22;10915;54.352;9.074;2023-02-28T15:40:58;8.70;99.90
21508;DHT22;10915;54.352;9.074;2023-02-28T15:43:25;8.60;99.90
21508;DHT22;10915;54.352;9.074;2023-02-28T15:46:17;8.60;99.90
21508;DHT22;10915;54.352;9.074;2023-02-28T15:48:54;8.60;99.90
21508;DHT22;10915;54.352;9.074;2023-02-28T15:51:25;8.50;99.90
21508;DHT22;10915;54.352;9.074;2023-02-28T15:54:06;8.50;99.90
21508;DHT22;10915;54.352;9.074;2023-02-28T15:56:47;8.50;99.90
21508;DHT22;10915;54.352;9.074;2023-02-28T15:59:18;8.40;99.90
21508;DHT22;10915;54.352;9.074;2023-02-28T16:01:45;8.40;99.90
21508;DHT22;10915;54.352;9.074;2023-02-28T16:04:20;8.30;99.90
21508;DHT22;10915;54.352;9.074;2023-02-28T16:09:17;8.20;99.90
21508;DHT22;10915;54.352;9.074;2023-02-28T16:11:47;8.20;99.90
21508;DHT22;10915;54.352;9.074;2023-02-28T16:14:16;8.10;99.90
21508;DHT22;10915;54.352;9.074;2023-02-28T16:16:45;8.10;99.90
21508;DHT22;10915;54.352;9.074;2023-02-28T16:19:11;8.00;99.90
21508;DHT22;10915;54.352;9.074;2023-02-28T16:21:37;7.90;99.90
21508;DHT22;10915;54.352;9.074;2023-02-28T16:24:03;7.90;99.90
21508;DHT22;10915;54.352;9.074;2023-02-28T16:26:28;7.80;99.90
21508;DHT22;10915;54.352;9.074;2023-02-28T16:28:54;7.70;99.90
21508;DHT22;10915;54.352;9.074;2023-02-28T16:31:20;7.70;99.90
21508;DHT22;10915;54.352;9.074;2023-02-28T16:33:46;7.60;99.90
21508;DHT22;10915;54.352;9.074;2023-02-28T16:36:21;7.50;99.90
21508;DHT22;10915;54.352;9.074;2023-02-28T16:38:47;7.40;99.90
21508;DHT22;10915;54.352;9.074;2023-02-28T16:41:18;7.30;99.90
21508;DHT22;10915;54.352;9.074;2023-02-28T16:43:46;7.20;99.90
21508;DHT22;10915;54.352;9.074;2023-02-28T16:46:13;7.10;99.90
21508;DHT22;10915;54.352;9.074;2023-02-28T16:48:41;7.10;99.90
21508;DHT22;10915;54.352;9.074;2023-02-28T16:51:15;7.00;99.90
21508;DHT22;10915;54.352;9.074;2023-02-28T16:53:42;6.90;99.90
21508;DHT22;10915;54.352;9.074;2023-02-28T16:56:20;6.80;99.90
21508;DHT22;10915;54.352;9.074;2023-02-28T16:58:48;6.70;99.90
21508;DHT22;10915;54.352;9.074;2023-02-28T17:01:15;6.60;99.90
21508;DHT22;10915;54.352;9.074;2023-02-28T17:03:41;6.50;99.90
21508;DHT22;10915;54.352;9.074;2023-02-28T17:06:19;6.50;99.90
21508;DHT22;10915;54.352;9.074;2023-02-28T17:08:46;6.40;99.90
21508;DHT22;10915;54.352;9.074;2023-02-28T17:11:12;6.30;99.90
21508;DHT22;10915;54.352;9.074;2023-02-28T17:13:38;6.20;99.90
21508;DHT22;10915;54.352;9.074;2023-02-28T17:16:04;6.10;99.90
21508;DHT22;10915;54.352;9.074;2023-02-28T17:18:30;6.00;99.90
21508;DHT22;10915;54.352;9.074;2023-02-28T17:21:00;5.90;99.90
21508;DHT22;10915;54.352;9.074;2023-02-28T17:23:26;5.80;99.90
21508;DHT22;10915;54.352;9.074;2023-02-28T17:25:51;5.80;99.90
21508;DHT22;10915;54.352;9.074;2023-02-28T17:28:21;5.60;99.90
21508;DHT22;10915;54.352;9.074;2023-02-28T17:30:47;5.60;99.90
21508;DHT22;10915;54.352;9.074;2023-02-28T17:33:14;5.50;99.90
21508;DHT22;10915;54.352;9.074;2023-02-28T17:35:40;5.50;99.90
21508;DHT22;10915;54.352;9.074;2023-02-28T17:38:17;5.40;99.90
21508;DHT22;10915;54.352;9.074;2023-02-28T17:40:44;5.40;99.90
21508;DHT22;10915;54.352;9.074;2023-02-28T17:43:10;5.30;99.90
21508;DHT22;10915;54.352;9.074;2023-02-28T17:45:35;5.30;99.90
21508;DHT22;10915;54.352;9.074;2023-02-28T17:48:02;5.30;99.90
21508;DHT22;10915;54.352;9.074;2023-02-28T17:50:28;5.20;99.90
21508;DHT22;10915;54.352;9.074;2023-02-28T17:52:55;5.20;99.90
21508;DHT22;10915;54.352;9.074;2023-02-28T17:55:21;5.10;99.90
21508;DHT22;10915;54.352;9.074;2023-02-28T17:57:47;5.10;99.90
21508;DHT22;10915;54.352;9.074;2023-02-28T18:00:16;5.00;99.90
21508;DHT22;10915;54.352;9.074;2023-02-28T18:02:43;4.80;99.90
21508;DHT22;10915;54.352;9.074;2023-02-28T18:05:09;4.70;99.90
21508;DHT22;10915;54.352;9.074;2023-02-28T18:07:39;4.70;99.90
21508;DHT22;10915;54.352;9.074;2023-02-28T18:10:06;4.60;99.90
21508;DHT22;10915;54.352;9.074;2023-02-28T18:12:32;4.60;99.90
21508;DHT22;10915;54.352;9.074;2023-02-28T18:14:59;4.60;99.90
21508;DHT22;10915;54.352;9.074;2023-02-28T18:17:24;4.50;99.90
21508;DHT22;10915;54.352;9.074;2023-02-28T18:19:50;4.40;99.90
21508;DHT22;10915;54.352;9.074;2023-02-28T18:22:16;4.40;99.90
21508;DHT22;10915;54.352;9.074;2023-02-28T18:24:42;4.40;99.90
21508;DHT22;10915;54.352;9.074;2023-02-28T18:27:08;4.40;99.90
21508;DHT22;10915;54.352;9.074;2023-02-28T18:29:35;4.30;99.90
21508;DHT22;10915;54.352;9.074;2023-02-28T18:32:02;4.30;99.90
21508;DHT22;10915;54.352;9.074;2023-02-28T18:34:28;4.30;99.90
21508;DHT22;10915;54.352;9.074;2023-02-28T18:36:55;4.20;99.90
21508;DHT22;10915;54.352;9.074;2023-02-28T18:39:22;4.10;99.90